createdAt,value
2018-06-18T00:00:49.386Z,0.00
2018-06-18T00:01:49.406Z,0.00
2018-06-18T00:02:49.428Z,0.00
2018-06-18T00:03:49.448Z,0.00
2018-06-18T00:04:49.468Z,0.00
2018-06-18T00:05:49.486Z,0.00
2018-06-18T00:06:49.512Z,0.00
2018-06-18T00:07:49.529Z,0.00
2018-06-18T00:08:49.546Z,0.00
2018-06-18T00:09:49.570Z,0.00
2018-06-18T00:10:49.589Z,0.00
2018-06-18T00:11:49.612Z,0.00
2018-06-18T00:12:49.631Z,0.00
2018-06-18T00:13:49.649Z,0.00
2018-06-18T00:14:49.672Z,0.00
2018-06-18T00:15:49.691Z,0.00
2018-06-18T00:16:49.712Z,0.00
2018-06-18T00:17:49.737Z,0.00
2018-06-18T00:18:49.754Z,0.00
2018-06-18T00:19:49.772Z,0.00
2018-06-18T00:20:49.794Z,0.00
2018-06-18T00:21:49.812Z,0.00
2018-06-18T00:22:49.833Z,0.00
2018-06-18T00:23:49.857Z,0.00
2018-06-18T00:24:49.873Z,0.00
2018-06-18T00:25:49.894Z,0.00
2018-06-18T00:26:49.919Z,0.00
2018-06-18T00:27:49.936Z,0.00
2018-06-18T00:28:49.956Z,0.00
2018-06-18T00:29:49.980Z,0.00
2018-06-18T00:30:49.998Z,0.00
2018-06-18T00:31:50.018Z,0.00
2018-06-18T00:32:50.093Z,0.00
2018-06-18T00:33:50.062Z,0.00
2018-06-18T00:34:50.079Z,0.00
2018-06-18T00:35:50.103Z,0.00
2018-06-18T00:36:50.119Z,0.00
2018-06-18T00:37:50.140Z,0.00
2018-06-18T00:38:50.161Z,0.00
2018-06-18T00:39:50.181Z,0.00
2018-06-18T00:40:50.205Z,0.00
2018-06-18T00:41:50.222Z,0.00
2018-06-18T00:42:50.246Z,0.00
2018-06-18T00:43:50.263Z,0.00
2018-06-18T00:44:50.287Z,0.00
2018-06-18T00:45:50.304Z,0.00
2018-06-18T00:46:50.325Z,0.00
2018-06-18T00:47:50.345Z,0.00
2018-06-18T00:48:50.369Z,0.00
2018-06-18T00:49:50.386Z,0.00
2018-06-18T00:50:50.409Z,0.00
2018-06-18T00:51:50.429Z,0.00
2018-06-18T00:52:50.450Z,0.00
2018-06-18T00:53:50.470Z,0.00
2018-06-18T00:54:50.488Z,0.00
2018-06-18T00:55:50.510Z,0.00
2018-06-18T00:56:50.530Z,0.00
2018-06-18T00:57:50.550Z,0.00
2018-06-18T00:58:50.574Z,0.00
2018-06-18T00:59:50.591Z,0.00
2018-06-18T01:00:50.611Z,0.00
2018-06-18T01:01:50.635Z,0.00
2018-06-18T01:02:50.672Z,0.00
2018-06-18T01:03:50.677Z,0.00
2018-06-18T01:04:50.697Z,0.00
2018-06-18T01:05:50.721Z,0.00
2018-06-18T01:06:50.738Z,0.00
2018-06-18T01:07:50.758Z,0.00
2018-06-18T01:08:50.778Z,0.00
2018-06-18T01:09:50.795Z,0.00
2018-06-18T01:10:50.819Z,0.00
2018-06-18T01:11:50.844Z,0.00
2018-06-18T01:12:50.861Z,0.00
2018-06-18T01:13:50.881Z,0.00
2018-06-18T01:14:50.902Z,0.00
2018-06-18T01:15:50.921Z,0.00
2018-06-18T01:16:50.939Z,0.00
2018-06-18T01:17:50.960Z,0.00
2018-06-18T01:18:50.982Z,0.00
2018-06-18T01:19:51.003Z,0.00
2018-06-18T01:20:51.023Z,0.00
2018-06-18T01:21:51.044Z,0.00
2018-06-18T01:22:51.066Z,0.00
2018-06-18T01:23:51.084Z,0.00
2018-06-18T01:24:51.104Z,0.00
2018-06-18T01:25:51.126Z,0.00
2018-06-18T01:26:51.148Z,0.00
2018-06-18T01:27:51.173Z,0.00
2018-06-18T01:28:51.187Z,0.00
2018-06-18T01:29:51.208Z,0.00
2018-06-18T01:30:51.226Z,0.00
2018-06-18T01:31:51.251Z,0.00
2018-06-18T01:32:51.267Z,0.00
2018-06-18T01:33:51.288Z,0.00
2018-06-18T01:34:51.310Z,0.00
2018-06-18T01:35:51.332Z,0.00
2018-06-18T01:36:51.349Z,0.00
2018-06-18T01:37:51.371Z,0.00
2018-06-18T01:38:51.393Z,0.00
2018-06-18T01:39:51.413Z,0.00
2018-06-18T01:40:51.432Z,0.00
2018-06-18T01:41:51.455Z,0.00
2018-06-18T01:42:51.472Z,0.00
2018-06-18T01:43:51.494Z,0.00
2018-06-18T01:44:51.516Z,0.00
2018-06-18T01:45:51.534Z,0.00
2018-06-18T01:46:51.556Z,0.00
2018-06-18T01:47:51.575Z,0.00
2018-06-18T01:48:51.598Z,0.00
2018-06-18T01:49:51.616Z,0.00
2018-06-18T01:50:51.637Z,0.00
2018-06-18T01:51:51.660Z,0.00
2018-06-18T01:52:51.679Z,0.00
2018-06-18T01:53:51.700Z,0.00
2018-06-18T01:54:51.719Z,0.00
2018-06-18T01:55:51.742Z,0.00
2018-06-18T01:56:51.762Z,0.00
2018-06-18T01:57:51.780Z,0.00
2018-06-18T01:58:51.801Z,0.00
2018-06-18T01:59:51.825Z,0.00
2018-06-18T02:00:51.843Z,0.00
2018-06-18T02:01:51.862Z,0.00
2018-06-18T02:02:51.886Z,0.00
2018-06-18T02:03:51.905Z,0.00
2018-06-18T02:04:51.926Z,0.00
2018-06-18T02:05:51.946Z,0.00
2018-06-18T02:06:51.968Z,0.00
2018-06-18T02:07:51.986Z,0.00
2018-06-18T02:08:52.008Z,0.00
2018-06-18T02:09:52.026Z,0.00
2018-06-18T02:10:52.050Z,0.00
2018-06-18T02:11:52.069Z,0.00
2018-06-18T02:12:52.088Z,0.00
2018-06-18T02:13:52.107Z,0.00
2018-06-18T02:14:52.132Z,0.00
2018-06-18T02:15:52.151Z,0.00
2018-06-18T02:16:52.172Z,0.00
2018-06-18T02:17:52.193Z,0.00
2018-06-18T02:18:52.212Z,0.00
2018-06-18T02:19:52.233Z,0.00
2018-06-18T02:20:52.252Z,0.00
2018-06-18T02:21:52.275Z,0.00
2018-06-18T02:22:52.291Z,0.00
2018-06-18T02:23:52.312Z,0.00
2018-06-18T02:24:52.331Z,0.00
2018-06-18T02:25:52.353Z,0.00
2018-06-18T02:26:52.376Z,4.00
2018-06-18T02:27:52.393Z,4.00
2018-06-18T02:28:52.414Z,4.00
2018-06-18T02:29:52.434Z,4.00
2018-06-18T02:30:52.454Z,4.00
2018-06-18T02:31:52.477Z,0.00
2018-06-18T02:32:52.501Z,0.00
2018-06-18T02:33:52.516Z,4.00
2018-06-18T02:34:52.541Z,4.00
2018-06-18T02:35:52.557Z,4.00
2018-06-18T02:36:52.590Z,4.00
2018-06-18T02:37:52.597Z,4.00
2018-06-18T02:38:52.621Z,4.00
2018-06-18T02:39:52.649Z,4.00
2018-06-18T02:40:52.659Z,8.00
2018-06-18T02:41:52.678Z,4.00
2018-06-18T02:42:52.701Z,8.00
2018-06-18T02:43:52.719Z,8.00
2018-06-18T02:44:52.744Z,8.00
2018-06-18T02:45:52.761Z,8.00
2018-06-18T02:46:52.780Z,8.00
2018-06-18T02:47:52.803Z,12.00
2018-06-18T02:48:52.819Z,12.00
2018-06-18T02:49:52.840Z,16.00
2018-06-18T02:50:52.863Z,16.00
2018-06-18T02:51:52.882Z,20.00
2018-06-18T02:52:52.903Z,20.00
2018-06-18T02:53:52.923Z,24.00
2018-06-18T02:54:52.945Z,20.00
2018-06-18T02:55:52.965Z,28.00
2018-06-18T02:56:52.984Z,28.00
2018-06-18T02:57:53.003Z,36.00
2018-06-18T02:58:53.024Z,36.00
2018-06-18T02:59:53.045Z,40.00
2018-06-18T03:00:53.064Z,44.00
2018-06-18T03:01:53.082Z,48.00
2018-06-18T03:02:53.106Z,56.00
2018-06-18T03:03:53.127Z,60.00
2018-06-18T03:04:53.146Z,60.00
2018-06-18T03:05:53.168Z,64.00
2018-06-18T03:06:53.187Z,68.00
2018-06-18T03:07:53.206Z,68.00
2018-06-18T03:08:53.225Z,72.00
2018-06-18T03:09:53.247Z,72.00
2018-06-18T03:10:53.265Z,80.00
2018-06-18T03:11:53.285Z,84.00
2018-06-18T03:12:53.307Z,84.00
2018-06-18T03:13:53.325Z,88.00
2018-06-18T03:14:53.346Z,92.00
2018-06-18T03:15:53.367Z,88.00
2018-06-18T03:16:53.387Z,92.00
2018-06-18T03:17:53.410Z,96.00
2018-06-18T03:18:53.428Z,104.00
2018-06-18T03:19:53.450Z,112.00
2018-06-18T03:20:53.469Z,124.00
2018-06-18T03:21:53.487Z,128.00
2018-06-18T03:22:53.508Z,136.00
2018-06-18T03:23:53.529Z,144.00
2018-06-18T03:24:53.546Z,148.00
2018-06-18T03:25:53.568Z,148.00
2018-06-18T03:26:53.588Z,152.00
2018-06-18T03:27:53.610Z,160.00
2018-06-18T03:28:53.628Z,164.00
2018-06-18T03:29:53.651Z,168.00
2018-06-18T03:30:53.673Z,168.00
2018-06-18T03:31:53.689Z,172.00
2018-06-18T03:32:53.711Z,172.00
2018-06-18T03:33:53.729Z,176.00
2018-06-18T03:34:53.750Z,188.00
2018-06-18T03:35:53.771Z,204.00
2018-06-18T03:36:53.788Z,220.00
2018-06-18T03:37:53.811Z,236.00
2018-06-18T03:38:53.832Z,252.00
2018-06-18T03:39:53.859Z,276.00
2018-06-18T03:40:53.873Z,304.00
2018-06-18T03:41:53.891Z,324.00
2018-06-18T03:42:53.912Z,344.00
2018-06-18T03:43:53.931Z,372.00
2018-06-18T03:44:53.955Z,408.00
2018-06-18T03:45:53.973Z,464.00
2018-06-18T03:46:53.994Z,524.00
2018-06-18T03:47:54.013Z,544.00
2018-06-18T03:48:54.035Z,520.00
2018-06-18T03:49:54.054Z,464.00
2018-06-18T03:50:54.073Z,412.00
2018-06-18T03:51:54.096Z,388.00
2018-06-18T03:52:54.115Z,356.00
2018-06-18T03:53:54.136Z,332.00
2018-06-18T03:54:54.155Z,332.00
2018-06-18T03:55:54.174Z,372.00
2018-06-18T03:56:54.199Z,440.00
2018-06-18T03:57:54.216Z,544.00
2018-06-18T03:58:54.237Z,668.00
2018-06-18T03:59:54.258Z,820.00
2018-06-18T04:00:54.277Z,960.00
2018-06-18T04:01:54.294Z,1024.00
2018-06-18T04:02:54.316Z,1052.00
2018-06-18T04:03:54.336Z,1084.00
2018-06-18T04:04:54.358Z,1128.00
2018-06-18T04:05:54.376Z,1184.00
2018-06-18T04:06:54.397Z,1232.00
2018-06-18T04:07:54.419Z,1256.00
2018-06-18T04:08:54.438Z,1232.00
2018-06-18T04:09:54.457Z,1196.00
2018-06-18T04:10:54.480Z,1164.00
2018-06-18T04:11:54.501Z,1160.00
2018-06-18T04:12:54.519Z,1176.00
2018-06-18T04:13:54.538Z,1176.00
2018-06-18T04:14:54.561Z,1152.00
2018-06-18T04:15:54.579Z,1148.00
2018-06-18T04:16:54.599Z,1192.00
2018-06-18T04:17:54.619Z,1248.00
2018-06-18T04:18:54.643Z,1292.00
2018-06-18T04:19:54.662Z,1328.00
2018-06-18T04:20:54.679Z,1356.00
2018-06-18T04:21:54.703Z,1412.00
2018-06-18T04:22:54.722Z,1500.00
2018-06-18T04:23:54.743Z,1568.00
2018-06-18T04:24:54.760Z,1608.00
2018-06-18T04:25:54.784Z,1596.00
2018-06-18T04:26:54.803Z,1560.00
2018-06-18T04:27:54.824Z,1500.00
2018-06-18T04:28:54.845Z,1480.00
2018-06-18T04:29:54.865Z,1512.00
2018-06-18T04:30:54.903Z,1572.00
2018-06-18T04:31:54.905Z,1636.00
2018-06-18T04:32:54.922Z,1700.00
2018-06-18T04:33:54.946Z,1748.00
2018-06-18T04:34:54.964Z,1744.00
2018-06-18T04:35:54.984Z,1668.00
2018-06-18T04:36:55.005Z,1564.00
2018-06-18T04:37:55.026Z,1496.00
2018-06-18T04:38:55.047Z,1516.00
2018-06-18T04:39:55.067Z,1620.00
2018-06-18T04:40:55.085Z,1732.00
2018-06-18T04:41:55.106Z,1824.00
2018-06-18T04:42:55.128Z,1896.00
2018-06-18T04:43:55.147Z,1972.00
2018-06-18T04:44:55.170Z,2068.00
2018-06-18T04:45:55.190Z,2148.00
2018-06-18T04:46:55.208Z,2144.00
2018-06-18T04:47:55.235Z,2044.00
2018-06-18T04:48:55.251Z,2048.00
2018-06-18T04:49:55.269Z,2168.00
2018-06-18T04:50:55.292Z,2400.00
2018-06-18T04:51:55.310Z,2612.00
2018-06-18T04:52:55.330Z,2684.00
2018-06-18T04:53:55.352Z,2572.00
2018-06-18T04:54:55.371Z,2356.00
2018-06-18T04:55:55.395Z,2172.00
2018-06-18T04:56:55.420Z,2044.00
2018-06-18T04:57:55.434Z,1980.00
2018-06-18T04:58:55.456Z,1964.00
2018-06-18T04:59:55.473Z,1896.00
2018-06-18T05:00:55.495Z,1744.00
2018-06-18T05:01:55.520Z,1660.00
2018-06-18T05:02:55.538Z,1624.00
2018-06-18T05:03:55.555Z,1628.00
2018-06-18T05:04:55.576Z,1644.00
2018-06-18T05:05:55.597Z,1656.00
2018-06-18T05:06:55.620Z,1632.00
2018-06-18T05:07:55.637Z,1692.00
2018-06-18T05:08:55.662Z,1812.00
2018-06-18T05:09:55.682Z,1948.00
2018-06-18T05:10:55.699Z,2136.00
2018-06-18T05:11:55.720Z,2328.00
2018-06-18T05:12:55.796Z,2488.00
2018-06-18T05:13:55.760Z,2604.00
2018-06-18T05:14:55.781Z,2648.00
2018-06-18T05:15:55.803Z,2688.00
2018-06-18T05:16:55.824Z,2784.00
2018-06-18T05:17:55.843Z,2888.00
2018-06-18T05:18:55.867Z,2948.00
2018-06-18T05:19:55.887Z,2948.00
2018-06-18T05:20:55.906Z,2964.00
2018-06-18T05:21:55.928Z,3020.00
2018-06-18T05:22:55.951Z,3080.00
2018-06-18T05:23:55.969Z,3124.00
2018-06-18T05:24:55.986Z,3196.00
2018-06-18T05:25:56.011Z,3308.00
2018-06-18T05:26:56.031Z,3384.00
2018-06-18T05:27:56.048Z,3412.00
2018-06-18T05:28:56.068Z,3448.00
2018-06-18T05:29:56.089Z,3476.00
2018-06-18T05:30:56.114Z,3480.00
2018-06-18T05:31:56.131Z,3404.00
2018-06-18T05:32:56.151Z,3232.00
2018-06-18T05:33:56.171Z,3052.00
2018-06-18T05:34:56.193Z,2916.00
2018-06-18T05:35:56.216Z,2792.00
2018-06-18T05:36:56.232Z,2712.00
2018-06-18T05:37:56.254Z,2612.00
2018-06-18T05:38:56.275Z,2524.00
2018-06-18T05:39:56.298Z,2476.00
2018-06-18T05:40:56.320Z,2460.00
2018-06-18T05:41:56.337Z,2508.00
2018-06-18T05:42:56.363Z,2612.00
2018-06-18T05:43:56.381Z,2676.00
2018-06-18T05:44:56.398Z,2708.00
2018-06-18T05:45:56.420Z,2748.00
2018-06-18T05:46:56.442Z,2792.00
2018-06-18T05:47:56.466Z,2808.00
2018-06-18T05:48:56.481Z,2824.00
2018-06-18T05:49:56.546Z,2880.00
2018-06-18T05:50:56.525Z,2964.00
2018-06-18T05:51:56.546Z,2980.00
2018-06-18T05:52:56.564Z,2900.00
2018-06-18T05:53:56.589Z,2776.00
2018-06-18T05:54:56.607Z,2692.00
2018-06-18T05:55:56.626Z,2600.00
2018-06-18T05:56:56.648Z,2532.00
2018-06-18T05:57:56.668Z,2504.00
2018-06-18T05:58:56.691Z,2504.00
2018-06-18T05:59:56.713Z,2504.00
2018-06-18T06:00:56.732Z,2476.00
2018-06-18T06:01:56.807Z,2384.00
2018-06-18T06:02:56.775Z,2368.00
2018-06-18T06:03:56.793Z,2472.00
2018-06-18T06:04:56.815Z,2592.00
2018-06-18T06:05:56.867Z,2784.00
2018-06-18T06:06:56.857Z,2908.00
2018-06-18T06:07:56.879Z,3072.00
2018-06-18T06:08:56.899Z,3336.00
2018-06-18T06:09:56.917Z,3532.00
2018-06-18T06:10:56.940Z,3592.00
2018-06-18T06:11:56.959Z,3456.00
2018-06-18T06:12:57.051Z,3684.00
2018-06-18T06:13:57.007Z,3756.00
2018-06-18T06:14:57.024Z,3656.00
2018-06-18T06:15:57.046Z,3780.00
2018-06-18T06:16:57.189Z,3700.00
2018-06-18T06:17:57.085Z,3508.00
2018-06-18T06:18:57.107Z,3340.00
2018-06-18T06:19:57.125Z,3128.00
2018-06-18T06:20:57.148Z,2980.00
2018-06-18T06:21:57.168Z,2868.00
2018-06-18T06:22:57.190Z,3016.00
2018-06-18T06:23:57.209Z,3168.00
2018-06-18T06:24:57.230Z,3328.00
2018-06-18T06:25:57.249Z,3432.00
2018-06-18T06:26:57.269Z,3556.00
2018-06-18T06:27:57.291Z,3668.00
2018-06-18T06:28:57.315Z,3600.00
2018-06-18T06:29:57.332Z,3268.00
2018-06-18T06:30:57.353Z,3028.00
2018-06-18T06:31:57.380Z,2920.00
2018-06-18T06:32:57.393Z,3096.00
2018-06-18T06:33:57.415Z,3356.00
2018-06-18T06:34:57.438Z,3540.00
2018-06-18T06:35:57.457Z,3684.00
2018-06-18T06:36:57.479Z,3868.00
2018-06-18T06:37:57.500Z,4120.00
2018-06-18T06:38:57.522Z,4256.00
2018-06-18T06:39:57.545Z,4332.00
2018-06-18T06:40:57.562Z,4452.00
2018-06-18T06:41:57.582Z,4736.00
2018-06-18T06:42:57.604Z,4780.00
2018-06-18T06:43:57.629Z,4672.00
2018-06-18T06:44:57.648Z,4584.00
2018-06-18T06:45:57.664Z,4636.00
2018-06-18T06:46:57.687Z,4776.00
2018-06-18T06:47:57.721Z,4852.00
2018-06-18T06:48:57.783Z,4908.00
2018-06-18T06:49:57.750Z,5036.00
2018-06-18T06:50:57.772Z,5332.00
2018-06-18T06:51:57.793Z,5600.00
2018-06-18T06:52:57.813Z,5868.00
2018-06-18T06:53:57.834Z,5460.00
2018-06-18T06:54:57.852Z,4912.00
2018-06-18T06:55:57.939Z,4836.00
2018-06-18T06:56:57.898Z,4844.00
2018-06-18T06:57:57.915Z,4588.00
2018-06-18T06:58:57.936Z,4532.00
2018-06-18T06:59:57.957Z,4476.00
2018-06-18T07:00:57.977Z,4512.00
2018-06-18T07:01:57.998Z,4612.00
2018-06-18T07:02:58.022Z,4376.00
2018-06-18T07:03:58.042Z,4080.00
2018-06-18T07:04:58.064Z,4164.00
2018-06-18T07:05:58.083Z,4512.00
2018-06-18T07:06:58.108Z,4744.00
2018-06-18T07:07:58.195Z,4640.00
2018-06-18T07:08:58.148Z,4836.00
2018-06-18T07:09:58.167Z,5092.00
2018-06-18T07:10:58.188Z,5068.00
2018-06-18T07:11:58.209Z,4928.00
2018-06-18T07:12:58.233Z,5180.00
2018-06-18T07:13:58.251Z,5528.00
2018-06-18T07:14:58.273Z,5416.00
2018-06-18T07:15:58.293Z,5012.00
2018-06-18T07:16:58.314Z,4700.00
2018-06-18T07:17:58.338Z,4624.00
2018-06-18T07:18:58.358Z,4888.00
2018-06-18T07:19:58.378Z,5588.00
2018-06-18T07:20:58.399Z,6612.00
2018-06-18T07:21:58.426Z,7644.00
2018-06-18T07:22:58.450Z,8100.00
2018-06-18T07:23:58.463Z,7748.00
2018-06-18T07:24:58.482Z,7768.00
2018-06-18T07:25:58.545Z,8560.00
2018-06-18T07:26:58.532Z,9008.00
2018-06-18T07:27:58.548Z,9164.00
2018-06-18T07:28:58.571Z,9476.00
2018-06-18T07:29:58.590Z,9908.00
2018-06-18T07:30:58.673Z,10800.00
2018-06-18T07:31:58.636Z,11916.00
2018-06-18T07:32:58.656Z,12308.00
2018-06-18T07:33:58.677Z,12900.00
2018-06-18T07:34:58.697Z,13668.00
2018-06-18T07:35:58.721Z,13516.00
2018-06-18T07:36:58.739Z,12444.00
2018-06-18T07:37:58.761Z,11188.00
2018-06-18T07:38:58.785Z,10668.00
2018-06-18T07:39:58.804Z,11016.00
2018-06-18T07:40:58.825Z,11532.00
2018-06-18T07:41:58.849Z,11780.00
2018-06-18T07:42:58.869Z,11908.00
2018-06-18T07:43:58.897Z,11824.00
2018-06-18T07:44:58.912Z,11456.00
2018-06-18T07:45:58.937Z,10868.00
2018-06-18T07:46:58.958Z,9876.00
2018-06-18T07:47:58.980Z,9140.00
2018-06-18T07:48:59.000Z,8212.00
2018-06-18T07:49:59.021Z,7828.00
2018-06-18T07:50:59.042Z,7880.00
2018-06-18T07:51:59.065Z,7680.00
2018-06-18T07:52:59.128Z,7428.00
2018-06-18T07:53:59.108Z,7108.00
2018-06-18T07:54:59.130Z,6912.00
2018-06-18T07:55:59.153Z,6868.00
2018-06-18T07:56:59.173Z,6976.00
2018-06-18T07:57:59.199Z,7044.00
2018-06-18T07:58:59.218Z,7008.00
2018-06-18T07:59:59.241Z,7044.00
2018-06-18T08:00:59.263Z,7324.00
2018-06-18T08:01:59.285Z,7668.00
2018-06-18T08:02:59.312Z,7836.00
2018-06-18T08:03:59.329Z,7864.00
2018-06-18T08:04:59.352Z,7776.00
2018-06-18T08:05:59.370Z,7576.00
2018-06-18T08:06:59.393Z,7440.00
2018-06-18T08:07:59.414Z,7408.00
2018-06-18T08:08:59.437Z,7444.00
2018-06-18T08:09:59.525Z,7532.00
2018-06-18T08:10:59.483Z,7604.00
2018-06-18T08:11:59.503Z,7728.00
2018-06-18T08:12:59.523Z,8020.00
2018-06-18T08:13:59.548Z,8456.00
2018-06-18T08:14:59.568Z,8840.00
2018-06-18T08:15:59.593Z,9040.00
2018-06-18T08:16:59.613Z,9160.00
2018-06-18T08:17:59.635Z,9184.00
2018-06-18T08:18:59.654Z,9104.00
2018-06-18T08:19:59.677Z,9036.00
2018-06-18T08:20:59.702Z,9072.00
2018-06-18T08:21:59.725Z,9100.00
2018-06-18T08:22:59.742Z,9052.00
2018-06-18T08:23:59.767Z,8972.00
2018-06-18T08:24:59.785Z,8944.00
2018-06-18T08:25:59.808Z,8900.00
2018-06-18T08:26:59.890Z,8848.00
2018-06-18T08:27:59.856Z,8744.00
2018-06-18T08:28:59.876Z,8816.00
2018-06-18T08:29:59.899Z,9000.00
2018-06-18T08:30:59.918Z,9192.00
2018-06-18T08:31:59.944Z,9440.00
2018-06-18T08:32:59.963Z,9720.00
2018-06-18T08:33:59.986Z,10008.00
2018-06-18T08:35:00.013Z,10372.00
2018-06-18T08:36:00.039Z,10752.00
2018-06-18T08:37:00.056Z,11200.00
2018-06-18T08:38:00.075Z,11920.00
2018-06-18T08:39:00.096Z,12772.00
2018-06-18T08:40:00.120Z,13660.00
2018-06-18T08:41:00.142Z,16380.00
2018-06-18T08:42:00.168Z,16300.00
2018-06-18T08:43:00.185Z,17632.00
2018-06-18T08:44:00.207Z,18944.00
2018-06-18T08:45:00.231Z,26272.00
2018-06-18T08:46:00.253Z,22048.00
2018-06-18T08:47:00.277Z,20608.00
2018-06-18T08:48:00.296Z,21984.00
2018-06-18T08:49:00.319Z,26944.00
2018-06-18T08:50:00.345Z,18944.00
2018-06-18T08:51:00.374Z,19648.00
2018-06-18T08:52:00.387Z,22208.00
2018-06-18T08:53:00.419Z,35872.00
2018-06-18T08:54:00.434Z,24032.00
2018-06-18T08:55:00.455Z,14296.00
2018-06-18T08:56:00.478Z,11692.00
2018-06-18T08:57:00.500Z,11616.00
2018-06-18T08:58:00.524Z,10040.00
2018-06-18T08:59:00.551Z,9652.00
2018-06-18T09:00:00.573Z,9972.00
2018-06-18T09:01:00.596Z,9720.00
2018-06-18T09:02:00.615Z,10008.00
2018-06-18T09:03:00.644Z,11232.00
2018-06-18T09:04:00.663Z,14820.00
2018-06-18T09:05:00.685Z,22432.00
2018-06-18T09:06:00.710Z,55488.00
2018-06-18T09:07:00.734Z,81664.00
2018-06-18T09:08:00.756Z,68192.00
2018-06-18T09:09:00.782Z,32032.00
2018-06-18T09:10:00.804Z,74688.00
2018-06-18T09:11:00.827Z,84704.00
2018-06-18T09:12:00.851Z,30560.00
2018-06-18T09:13:00.873Z,25216.00
2018-06-18T09:14:00.898Z,20736.00
2018-06-18T09:15:00.922Z,28928.00
2018-06-18T09:16:01.004Z,17408.00
2018-06-18T09:17:00.972Z,24768.00
2018-06-18T09:18:01.036Z,19616.00
2018-06-18T09:19:01.022Z,16484.00
2018-06-18T09:20:01.039Z,12360.00
2018-06-18T09:21:01.068Z,11880.00
2018-06-18T09:22:01.091Z,11760.00
2018-06-18T09:23:01.118Z,11948.00
2018-06-18T09:24:01.139Z,12732.00
2018-06-18T09:25:01.164Z,12552.00
2018-06-18T09:26:01.189Z,10732.00
2018-06-18T09:27:01.215Z,9484.00
2018-06-18T09:28:01.240Z,8468.00
2018-06-18T09:29:01.259Z,7844.00
2018-06-18T09:30:01.285Z,7676.00
2018-06-18T09:31:01.311Z,7260.00
2018-06-18T09:32:01.396Z,6984.00
2018-06-18T09:33:01.357Z,7032.00
2018-06-18T09:34:01.386Z,7572.00
2018-06-18T09:35:01.465Z,8752.00
2018-06-18T09:36:01.430Z,10484.00
2018-06-18T09:37:01.453Z,12828.00
2018-06-18T09:38:01.477Z,16132.00
2018-06-18T09:39:01.502Z,19232.00
2018-06-18T09:40:01.527Z,22176.00
2018-06-18T09:41:01.550Z,19904.00
2018-06-18T09:42:01.577Z,18688.00
2018-06-18T09:43:01.602Z,16424.00
2018-06-18T09:44:01.623Z,14852.00
2018-06-18T09:45:01.646Z,12884.00
2018-06-18T09:46:01.670Z,10696.00
2018-06-18T09:47:01.694Z,8564.00
2018-06-18T09:48:01.786Z,7312.00
2018-06-18T09:49:01.742Z,6700.00
2018-06-18T09:50:01.767Z,6280.00
2018-06-18T09:51:01.789Z,5564.00
2018-06-18T09:52:01.813Z,5160.00
2018-06-18T09:53:01.839Z,4948.00
2018-06-18T09:54:01.859Z,4844.00
2018-06-18T09:55:01.883Z,4808.00
2018-06-18T09:56:01.906Z,4612.00
2018-06-18T09:57:01.930Z,4684.00
2018-06-18T09:58:01.950Z,5528.00
2018-06-18T09:59:01.982Z,8076.00
2018-06-18T10:00:01.997Z,12720.00
2018-06-18T10:01:02.023Z,18976.00
2018-06-18T10:02:02.048Z,26336.00
2018-06-18T10:03:02.068Z,28704.00
2018-06-18T10:04:02.093Z,25984.00
2018-06-18T10:05:02.115Z,25568.00
2018-06-18T10:06:02.136Z,21568.00
2018-06-18T10:07:02.160Z,19136.00
2018-06-18T10:08:02.183Z,15248.00
2018-06-18T10:09:02.207Z,11644.00
2018-06-18T10:10:02.236Z,9508.00
2018-06-18T10:11:02.253Z,8704.00
2018-06-18T10:12:02.281Z,7804.00
2018-06-18T10:13:02.303Z,7016.00
2018-06-18T10:14:02.329Z,6116.00
2018-06-18T10:15:02.347Z,5668.00
2018-06-18T10:16:02.371Z,5936.00
2018-06-18T10:17:02.393Z,6088.00
2018-06-18T10:18:02.417Z,5620.00
2018-06-18T10:19:02.444Z,5364.00
2018-06-18T10:20:02.468Z,5416.00
2018-06-18T10:21:02.490Z,5328.00
2018-06-18T10:22:02.513Z,5248.00
2018-06-18T10:23:02.534Z,5276.00
2018-06-18T10:24:02.558Z,5464.00
2018-06-18T10:25:02.583Z,5716.00
2018-06-18T10:26:02.605Z,5828.00
2018-06-18T10:27:02.631Z,6068.00
2018-06-18T10:28:02.651Z,6420.00
2018-06-18T10:29:02.680Z,7012.00
2018-06-18T10:30:02.700Z,7532.00
2018-06-18T10:31:02.775Z,8076.00
2018-06-18T10:32:02.743Z,8712.00
2018-06-18T10:33:02.770Z,9240.00
2018-06-18T10:34:02.788Z,9916.00
2018-06-18T10:35:02.811Z,9664.00
2018-06-18T10:36:02.835Z,8932.00
2018-06-18T10:37:02.857Z,9512.00
2018-06-18T10:38:02.882Z,12556.00
2018-06-18T10:39:02.907Z,15764.00
2018-06-18T10:40:02.927Z,18464.00
2018-06-18T10:41:02.953Z,20352.00
2018-06-18T10:42:02.972Z,20768.00
2018-06-18T10:43:02.998Z,20096.00
2018-06-18T10:44:03.021Z,18496.00
2018-06-18T10:45:03.044Z,16128.00
2018-06-18T10:46:03.064Z,16624.00
2018-06-18T10:47:03.088Z,16904.00
2018-06-18T10:48:03.113Z,16116.00
2018-06-18T10:49:03.176Z,14612.00
2018-06-18T10:50:03.158Z,13196.00
2018-06-18T10:51:03.183Z,12592.00
2018-06-18T10:52:03.206Z,13524.00
2018-06-18T10:53:03.227Z,12344.00
2018-06-18T10:54:03.251Z,10896.00
2018-06-18T10:55:03.273Z,10092.00
2018-06-18T10:56:03.297Z,9416.00
2018-06-18T10:57:03.364Z,8356.00
2018-06-18T10:58:03.345Z,7504.00
2018-06-18T10:59:03.370Z,6660.00
2018-06-18T11:00:03.390Z,5828.00
2018-06-18T11:01:03.416Z,5556.00
2018-06-18T11:02:03.436Z,5812.00
2018-06-18T11:03:03.464Z,6692.00
2018-06-18T11:04:03.483Z,7876.00
2018-06-18T11:05:03.506Z,9180.00
2018-06-18T11:06:03.532Z,9468.00
2018-06-18T11:07:03.555Z,8748.00
2018-06-18T11:08:03.579Z,8528.00
2018-06-18T11:09:03.598Z,8936.00
2018-06-18T11:10:03.622Z,9760.00
2018-06-18T11:11:03.657Z,10660.00
2018-06-18T11:12:03.669Z,10624.00
2018-06-18T11:13:03.691Z,10720.00
2018-06-18T11:14:03.718Z,10336.00
2018-06-18T11:15:03.738Z,9588.00
2018-06-18T11:16:03.840Z,8856.00
2018-06-18T11:17:03.933Z,8952.00
2018-06-18T11:18:03.811Z,9628.00
2018-06-18T11:19:03.832Z,10356.00
2018-06-18T11:20:03.855Z,12272.00
2018-06-18T11:21:03.876Z,12904.00
2018-06-18T11:22:03.908Z,13940.00
2018-06-18T11:23:03.924Z,14376.00
2018-06-18T11:24:03.950Z,14364.00
2018-06-18T11:25:03.972Z,16148.00
2018-06-18T11:26:03.995Z,19200.00
2018-06-18T11:27:04.082Z,16328.00
2018-06-18T11:28:04.041Z,16616.00
2018-06-18T11:29:04.062Z,17016.00
2018-06-18T11:30:04.132Z,15312.00
2018-06-18T11:31:04.109Z,16180.00
2018-06-18T11:32:04.136Z,20544.00
2018-06-18T11:33:04.155Z,19072.00
2018-06-18T11:34:04.186Z,20960.00
2018-06-18T11:35:04.208Z,21920.00
2018-06-18T11:36:04.230Z,19296.00
2018-06-18T11:37:04.252Z,18208.00
2018-06-18T11:38:04.276Z,17072.00
2018-06-18T11:39:04.301Z,15816.00
2018-06-18T11:40:04.323Z,14692.00
2018-06-18T11:41:04.348Z,15248.00
2018-06-18T11:42:04.490Z,17012.00
2018-06-18T11:43:04.394Z,18944.00
2018-06-18T11:44:04.420Z,18816.00
2018-06-18T11:45:04.441Z,17004.00
2018-06-18T11:46:04.465Z,15228.00
2018-06-18T11:47:04.488Z,12616.00
2018-06-18T11:48:04.567Z,10236.00
2018-06-18T11:49:04.535Z,8840.00
2018-06-18T11:50:04.561Z,8236.00
2018-06-18T11:51:04.586Z,7988.00
2018-06-18T11:52:04.611Z,7440.00
2018-06-18T11:53:04.632Z,6968.00
2018-06-18T11:54:04.659Z,6728.00
2018-06-18T11:55:04.682Z,6776.00
2018-06-18T11:56:04.707Z,6872.00
2018-06-18T11:57:04.730Z,6732.00
2018-06-18T11:58:04.754Z,6564.00
2018-06-18T11:59:04.775Z,6988.00
2018-06-18T12:00:04.800Z,7268.00
2018-06-18T12:01:04.826Z,7180.00
2018-06-18T12:02:04.982Z,7028.00
2018-06-18T12:03:04.871Z,6644.00
2018-06-18T12:04:04.896Z,6432.00
2018-06-18T12:05:04.919Z,6424.00
2018-06-18T12:06:04.943Z,6640.00
2018-06-18T12:07:05.038Z,6988.00
2018-06-18T12:08:04.990Z,7308.00
2018-06-18T12:09:05.012Z,7340.00
2018-06-18T12:10:05.037Z,7176.00
2018-06-18T12:11:05.060Z,7012.00
2018-06-18T12:12:05.084Z,6888.00
2018-06-18T12:13:05.106Z,7016.00
2018-06-18T12:14:05.129Z,7544.00
2018-06-18T12:15:05.154Z,8072.00
2018-06-18T12:16:05.177Z,8096.00
2018-06-18T12:17:05.201Z,7448.00
2018-06-18T12:18:05.227Z,6620.00
2018-06-18T12:19:05.248Z,6428.00
2018-06-18T12:20:05.270Z,6608.00